Alegria X — CFK5248 — position and weather

sailwx.info

Track history (hours):
 
Tides and Currents Weather Stations Pressure Air Temp Water Temp Dewpoint Dewpoint Depression Visibility Wind Speed Wind Dir Waves Ship Positions

Alegria X

Last reported at 2017-Oct-09 23:52 UTC. Time now 2017-Oct-17 01:12 UTC.
Position N 49°16' W 123°08'.

Length 14 m.

Type: Sailing vessel. MMSI: 316025398.

Date/timePositionNaut miles runAvg speedWind from/ knotsBaromVisibWave heightAir tempDewpointWater temp
2017-Oct-09 23:52N 49°16' W 123°08'0 0.0
2017-Oct-09 23:29N 49°16' W 123°08'2 4.4
2017-Oct-09 23:00N 49°17' W 123°11'2 4.8
2017-Oct-09 22:29N 49°17' W 123°15'2 3.6
2017-Oct-09 22:00N 49°17' W 123°18'2 4.9
2017-Oct-09 21:30N 49°16' W 123°21'4 7.5
2017-Oct-09 20:59N 49°12' W 123°23'4 7.3
2017-Oct-09 20:23N 49°08' W 123°25'2 5.1
2017-Oct-09 19:54N 49°06' W 123°26'2 4.8
2017-Oct-09 19:28N 49°04' W 123°26'2 4.5
2017-Oct-09 18:59N 49°02' W 123°23'6 2.3
2017-Oct-09 16:23N 48°57' W 123°20'4 5.2
2017-Oct-09 15:33N 48°53' W 123°18'1 5.6
2017-Oct-09 15:27N 48°52' W 123°18'3 6.0
2017-Oct-09 15:00N 48°51' W 123°22'1 0.0
2017-Oct-08 00:20N 48°52' W 123°23'2 5.9
2017-Oct-07 23:57N 48°54' W 123°25'17 4.8
2017-Oct-07 20:20N 49°07' W 123°43'1 4.5
2017-Oct-07 20:00N 49°08' W 123°41'1 0.1
2017-Oct-07 01:27N 49°09' W 123°42'0 0.0
2017-Oct-06 22:19N 49°09' W 123°42'0 0.0
2017-Oct-06 21:58N 49°09' W 123°42'1 1.5
2017-Oct-06 21:30N 49°09' W 123°41'1 2.0
2017-Oct-06 20:58N 49°09' W 123°39'3 5.4
2017-Oct-06 20:30N 49°10' W 123°36'3 5.3
2017-Oct-06 19:59N 49°11' W 123°32'3 6.9
2017-Oct-06 19:29N 49°12' W 123°27'3 6.2
2017-Oct-06 18:59N 49°14' W 123°23'5 7.7
2017-Oct-06 18:22N 49°17' W 123°17'2 5.7
2017-Oct-06 18:00N 49°17' W 123°14'2 4.0
2017-Oct-06 17:30N 49°17' W 123°11'1 1.8
2017-Oct-06 17:00N 49°17' W 123°10'1 1.6
2017-Oct-06 16:15N 49°16' W 123°08'  
2017-Oct-02 00:47N 49°16' W 123°08'  
Track history (hours):
 
Tides and Currents Weather Stations Pressure Air Temp Water Temp Dewpoint Dewpoint Depression Visibility Wind Speed Wind Dir Waves Ship Positions

Alegria X

Last reported at 2017-Oct-09 23:52 UTC. Time now 2017-Oct-17 01:12 UTC.
Position N 49°16' W 123°08'.

Length 14 m.

Type: Sailing vessel. MMSI: 316025398.

Date/timePositionNaut miles runAvg speedWind from/ knotsBaromVisibWave heightAir tempDewpointWater temp
2017-Oct-09 23:52N 49°16' W 123°08'0 0.0
2017-Oct-09 23:29N 49°16' W 123°08'2 4.4
2017-Oct-09 23:00N 49°17' W 123°11'2 4.8
2017-Oct-09 22:29N 49°17' W 123°15'2 3.6
2017-Oct-09 22:00N 49°17' W 123°18'2 4.9
2017-Oct-09 21:30N 49°16' W 123°21'4 7.5
2017-Oct-09 20:59N 49°12' W 123°23'4 7.3
2017-Oct-09 20:23N 49°08' W 123°25'2 5.1
2017-Oct-09 19:54N 49°06' W 123°26'2 4.8
2017-Oct-09 19:28N 49°04' W 123°26'2 4.5
2017-Oct-09 18:59N 49°02' W 123°23'6 2.3
2017-Oct-09 16:23N 48°57' W 123°20'4 5.2
2017-Oct-09 15:33N 48°53' W 123°18'1 5.6
2017-Oct-09 15:27N 48°52' W 123°18'3 6.0
2017-Oct-09 15:00N 48°51' W 123°22'1 0.0
2017-Oct-08 00:20N 48°52' W 123°23'2 5.9
2017-Oct-07 23:57N 48°54' W 123°25'17 4.8
2017-Oct-07 20:20N 49°07' W 123°43'1 4.5
2017-Oct-07 20:00N 49°08' W 123°41'1 0.1
2017-Oct-07 01:27N 49°09' W 123°42'0 0.0
2017-Oct-06 22:19N 49°09' W 123°42'0 0.0
2017-Oct-06 21:58N 49°09' W 123°42'1 1.5
2017-Oct-06 21:30N 49°09' W 123°41'1 2.0
2017-Oct-06 20:58N 49°09' W 123°39'3 5.4
2017-Oct-06 20:30N 49°10' W 123°36'3 5.3
2017-Oct-06 19:59N 49°11' W 123°32'3 6.9
2017-Oct-06 19:29N 49°12' W 123°27'3 6.2
2017-Oct-06 18:59N 49°14' W 123°23'5 7.7
2017-Oct-06 18:22N 49°17' W 123°17'2 5.7
2017-Oct-06 18:00N 49°17' W 123°14'2 4.0
2017-Oct-06 17:30N 49°17' W 123°11'1 1.8
2017-Oct-06 17:00N 49°17' W 123°10'1 1.6
2017-Oct-06 16:15N 49°16' W 123°08'  
2017-Oct-02 00:47N 49°16' W 123°08'  

Dump ship's entire track history